Time;durP1;ratioP1;P1;durP2;ratioP2;P2;SDS_P1;SDS_P2;PMS_P1;PMS_P2;Temp;Humidity;BMP_temperature;BMP_pressure;BME280_temperature;BME280_humidity;BME280_pressure;Samples;Min_cycle;Max_cycle;Signal;HPM_P1;HPM_P2
2023/01/18 00:00:19;;;;;;;2.10;0.60;;;;;;;18.24;61.46;95946.38;2081733;28;20044;-51
2023/01/18 00:01:22;;;;;;;1.20;1.10;;;;;;;18.24;61.51;95946.38;2091217;28;20048;-48
2023/01/18 00:02:23;;;;;;;1.50;0.80;;;;;;;18.24;61.58;95951.75;2093536;28;20059;-46
2023/01/18 00:03:25;;;;;;;;;;;;;;;18.11;61.81;95962.97;2092893;28;20044;-50
2023/01/18 00:04:25;;;;;;;1.77;0.60;;;;;;;18.12;61.98;95956.56;2090784;28;20541;-49
2023/01/18 00:05:27;;;;;;;;;;;;;;;18.06;62.04;95966.47;2092407;28;20055;-48
2023/01/18 00:06:28;;;;;;;;;;;;;;;17.96;62.38;95974.47;2091928;28;19935;-51
2023/01/18 00:07:30;;;;;;;0.83;0.70;;;;;;;18.01;62.31;95975.31;2090210;28;19928;-48
2023/01/18 00:08:32;;;;;;;2.17;0.82;;;;;;;18.08;61.94;95975.06;2092334;28;20045;-51
2023/01/18 00:09:34;;;;;;;1.00;0.80;;;;;;;18.12;61.88;95986.06;2091444;28;20209;-47
2023/01/18 00:10:35;;;;;;;2.67;1.20;;;;;;;18.15;61.83;95990.91;2088573;28;20044;-50
2023/01/18 00:11:36;;;;;;;;;;;;;;;18.02;61.87;95978.78;2090901;28;20094;-46
2023/01/18 00:12:37;;;;;;;1.13;0.80;;;;;;;18.06;61.86;95979.88;2092418;28;19920;-48
2023/01/18 00:13:39;;;;;;;2.10;1.38;;;;;;;18.09;61.71;95993.56;2084525;28;22377;-50
2023/01/18 00:14:40;;;;;;;1.60;1.25;;;;;;;18.12;61.64;95994.13;2088695;28;20043;-50
2023/01/18 00:15:42;;;;;;;;;;;;;;;18.00;62.17;96000.53;2091591;28;20048;-50
2023/01/18 00:16:44;;;;;;;3.13;0.73;;;;;;;18.03;61.92;96002.69;2091605;28;19931;-50
2023/01/18 00:17:50;;;;;;;1.33;0.80;;;;;;;18.06;61.79;95988.75;2091368;28;20059;-48
2023/01/18 00:18:53;;;;;;;1.15;0.73;;;;;;;18.08;61.87;96000.00;2089691;28;20043;-52
2023/01/18 00:19:55;;;;;;;0.70;0.70;;;;;;;18.08;61.62;96002.69;2093400;28;20052;-47
2023/01/18 00:21:00;;;;;;;2.58;1.33;;;;;;;18.11;61.55;96005.91;2091033;28;20052;-47
2023/01/18 00:22:02;;;;;;;0.80;0.55;;;;;;;18.09;61.70;96003.50;2089248;28;20055;-49
2023/01/18 00:23:03;;;;;;;3.53;1.40;;;;;;;18.09;61.54;95998.13;2092597;28;20509;-48
2023/01/18 00:24:05;;;;;;;;;;;;;;;17.96;61.94;96001.31;2093544;28;20722;-47
2023/01/18 00:25:09;;;;;;;1.33;0.75;;;;;;;18.00;62.02;96000.53;2092187;28;19924;-50
2023/01/18 00:26:12;;;;;;;1.65;0.43;;;;;;;18.02;61.82;96006.41;2093453;28;20067;-48
2023/01/18 00:27:13;;;;;;;1.08;0.60;;;;;;;18.01;61.89;96002.13;2090675;28;20047;-48
2023/01/18 00:28:15;;;;;;;;;;;;;;;17.91;62.20;96003.97;2091676;28;20534;-49
2023/01/18 00:29:16;;;;;;;0.75;0.60;;;;;;;17.95;61.95;96007.75;2093200;28;19932;-50
2023/01/18 00:30:19;;;;;;;;;;;;;;;17.87;62.02;96009.06;2090875;28;20204;-49
2023/01/18 00:31:20;;;;;;;0.93;0.60;;;;;;;17.90;62.08;96008.53;2093745;28;19924;-49
2023/01/18 00:32:23;;;;;;;;;;;;;;;17.84;62.23;96012.25;2088014;28;20135;-49
2023/01/18 00:33:24;;;;;;;2.03;0.60;;;;;;;17.86;62.33;96013.63;2090461;28;19925;-49
2023/01/18 00:34:27;;;;;;;;;;;;;;;17.77;62.43;96019.69;2095042;28;20149;-48
2023/01/18 00:35:27;;;;;;;0.70;0.57;;;;;;;17.86;62.16;96016.28;2091344;28;20042;-47
2023/01/18 00:36:30;;;;;;;;;;;;;;;17.78;62.22;96010.59;2091564;28;20049;-47
2023/01/18 00:37:31;;;;;;;1.30;0.70;;;;;;;17.83;62.19;96008.78;2090729;28;19928;-48
2023/01/18 00:38:33;;;;;;;;;;;;;;;17.75;62.42;96014.59;2090338;28;20514;-48
2023/01/18 00:39:33;;;;;;;;;;;;;;;17.69;62.71;96018.34;2092640;28;19929;-46
2023/01/18 00:40:35;;;;;;;0.90;0.50;;;;;;;17.72;62.49;96008.94;2091352;28;19924;-51
2023/01/18 00:43:37;;;;;;;3.80;0.85;;;;;;;17.82;62.28;96023.22;2090851;28;20067;-47
2023/01/18 00:44:17;;;;;;;1.10;0.90;;;;;;;17.78;62.38;96032.06;2090173;28;20135;-47
2023/01/18 00:45:19;;;;;;;2.25;0.70;;;;;;;17.82;62.36;96023.22;2088442;28;20055;-49
2023/01/18 00:46:22;;;;;;;1.83;0.70;;;;;;;17.85;62.06;96036.13;2092386;28;20103;-49
2023/01/18 00:47:25;;;;;;;0.68;0.60;;;;;;;17.84;62.10;96039.88;2092093;28;20059;-46
2023/01/18 00:48:27;;;;;;;1.60;0.70;;;;;;;17.84;62.16;96029.16;2090116;28;20131;-47
2023/01/18 00:49:28;;;;;;;3.10;0.57;;;;;;;17.85;62.13;96035.31;2092860;28;20054;-49
2023/01/18 00:50:30;;;;;;;;;;;;;;;17.72;62.27;96028.53;2095236;28;20498;-47
2023/01/18 00:51:31;;;;;;;1.77;0.80;;;;;;;17.76;62.42;96036.84;2089082;28;19932;-46
2023/01/18 00:52:33;;;;;;;1.75;0.55;;;;;;;17.77;62.19;96033.09;2091442;28;20060;-48
2023/01/18 00:53:36;;;;;;;0.95;0.68;;;;;;;17.81;62.12;96039.59;2092856;28;20124;-47
2023/01/18 00:54:37;;;;;;;2.42;1.15;;;;;;;17.81;61.95;96050.31;2094656;28;20060;-48
2023/01/18 00:55:39;;;;;;;;;;;;;;;17.68;62.43;96046.19;2093066;28;20055;-50
2023/01/18 00:56:39;;;;;;;;;;;;;;;17.58;62.56;96038.13;2093201;28;19935;-48
2023/01/18 00:57:42;;;;;;;1.50;0.70;;;;;;;17.63;62.60;96043.47;2094418;28;19924;-47
2023/01/18 00:58:43;;;;;;;1.10;0.57;;;;;;;17.70;62.41;96054.00;2086405;28;20041;-50
2023/01/18 00:59:45;;;;;;;0.80;0.65;;;;;;;17.72;62.33;96055.34;2089333;28;20059;-49
2023/01/18 01:00:47;;;;;;;1.75;0.95;;;;;;;17.73;62.22;96050.78;2089278;28;20044;-47
2023/01/18 01:01:49;;;;;;;1.45;0.65;;;;;;;17.75;62.16;96054.03;2090112;28;20051;-49
2023/01/18 01:02:51;;;;;;;1.42;0.60;;;;;;;17.74;62.14;96055.06;2094042;28;20040;-51
2023/01/18 01:06:46;;;;;;;1.40;0.63;;;;;;;17.69;62.15;96042.47;2090693;28;20163;-47
2023/01/18 01:07:47;;;;;;;0.77;0.77;;;;;;;17.67;62.41;96062.56;2092452;28;20044;-46
2023/01/18 01:08:49;;;;;;;1.35;0.95;;;;;;;17.69;62.13;96055.03;2090124;28;20067;-46
2023/01/18 01:09:50;;;;;;;2.92;0.80;;;;;;;17.69;62.10;96055.88;2091113;28;20053;-48
2023/01/18 01:11:02;;;;;;;1.45;0.65;;;;;;;17.70;62.22;96070.06;2091526;28;20121;-46
2023/01/18 01:26:44;;;;;;;1.05;0.60;;;;;;;17.51;62.58;96073.16;2089170;28;20111;-48
2023/01/18 01:27:45;;;;;;;1.20;0.80;;;;;;;17.53;62.54;96079.09;2087029;28;20055;-47
2023/01/18 01:28:50;;;;;;;;;;;;;;;17.40;62.68;96076.84;2090839;28;20055;-49
2023/01/18 01:29:51;;;;;;;0.90;0.60;;;;;;;17.44;62.68;96077.97;2089146;28;19931;-47
2023/01/18 01:30:57;;;;;;;0.43;0.43;;;;;;;17.48;62.53;96079.06;2088175;28;20514;-46
2023/01/18 01:31:58;;;;;;;1.13;0.75;;;;;;;17.46;62.59;96088.41;2089082;28;20491;-48
2023/01/18 01:33:00;;;;;;;;;;;;;;;17.35;62.79;96084.84;2081296;28;20135;-47
2023/01/18 01:34:02;;;;;;;0.80;0.55;;;;;;;17.41;62.73;96078.44;2091448;28;21373;-46
2023/01/18 01:35:04;;;;;;;2.13;0.75;;;;;;;17.42;62.66;96085.44;2091449;28;20056;-46
2023/01/18 01:36:08;;;;;;;1.25;0.52;;;;;;;17.45;62.59;96082.25;2091834;28;20044;-50
2023/01/18 01:37:09;;;;;;;1.70;0.50;;;;;;;17.49;62.54;96093.25;2091258;28;20408;-46
2023/01/18 01:38:10;;;;;;;1.75;0.80;;;;;;;17.46;62.47;96091.91;2089119;28;20072;-46
2023/01/18 01:39:12;;;;;;;;;;;;;;;17.34;62.84;96093.97;2093679;28;20538;-46
2023/01/18 01:40:13;;;;;;;0.52;0.50;;;;;;;17.36;62.77;96091.84;2087226;28;19928;-49
2023/01/18 01:41:16;;;;;;;;;;;;;;;17.27;63.09;96098.72;2090399;28;20045;-49
2023/01/18 01:42:17;;;;;;;1.85;0.73;;;;;;;17.34;62.89;96093.97;2087227;28;19928;-47
2023/01/18 01:43:18;;;;;;;;;;;;;;;17.25;63.10;96101.66;2087523;28;20055;-51
2023/01/18 01:44:37;;;;;;;;;;;;;;;17.20;63.23;96099.75;2088078;28;20270;-46
2023/01/18 01:45:39;;;;;;;1.13;0.50;;;;;;;17.26;63.00;96105.16;2090440;28;19928;-47
2023/01/18 01:46:46;;;;;;;1.52;0.68;;;;;;;17.30;62.76;96106.25;2087682;28;20055;-47
2023/01/18 01:47:48;;;;;;;0.65;0.65;;;;;;;17.34;62.84;96104.69;2089809;28;20062;-47
2023/01/18 01:48:53;;;;;;;1.23;0.70;;;;;;;17.36;62.66;96103.34;2093062;28;20173;-47
2023/01/18 01:50:00;;;;;;;1.65;0.95;;;;;;;17.37;62.61;96104.97;2083102;28;20059;-48
2023/01/18 01:51:01;;;;;;;1.85;0.70;;;;;;;17.38;62.58;96109.28;2078629;28;20044;-48
2023/01/18 01:52:05;;;;;;;;;;;;;;;17.25;62.94;96108.91;2088236;28;20056;-48
2023/01/18 01:53:08;;;;;;;0.60;0.50;;;;;;;17.26;63.01;96105.94;2088294;28;19924;-48
2023/01/18 01:54:14;;;;;;;2.13;0.80;;;;;;;17.32;62.77;96112.16;2089290;28;20982;-48
2023/01/18 01:55:21;;;;;;;1.42;0.57;;;;;;;17.33;62.65;96119.16;2091464;28;20540;-48
2023/01/18 01:56:23;;;;;;;1.60;0.77;;;;;;;17.29;62.69;96115.34;2088245;28;20055;-47
2023/01/18 01:57:28;;;;;;;0.70;0.57;;;;;;;17.31;62.77;96118.59;2085991;28;20068;-47
2023/01/18 01:58:30;;;;;;;1.35;0.80;;;;;;;17.31;62.71;96114.03;2079250;28;20870;-49
2023/01/18 01:59:32;;;;;;;2.08;0.47;;;;;;;17.31;62.78;96123.94;2089693;28;20059;-47
2023/01/18 02:00:34;;;;;;;1.02;0.80;;;;;;;17.31;62.68;96116.72;2089380;28;20082;-49
2023/01/18 02:01:37;;;;;;;3.63;1.50;;;;;;;17.29;62.74;96113.47;2088362;28;20056;-48
2023/01/18 02:02:40;;;;;;;0.70;0.50;;;;;;;17.30;62.47;96120.47;2087456;28;22479;-47
2023/01/18 02:03:41;;;;;;;0.65;0.55;;;;;;;17.27;62.65;96118.28;2088176;28;20051;-47
2023/01/18 02:04:45;;;;;;;;;;;;;;;17.17;63.08;96126.25;2086936;28;20045;-47
2023/01/18 02:05:51;;;;;;;0.82;0.60;;;;;;;17.22;62.80;96126.28;2085578;28;20309;-48
2023/01/18 02:06:53;;;;;;;1.38;0.50;;;;;;;17.24;62.70;96121.47;2088408;28;20058;-47
2023/01/18 02:07:58;;;;;;;0.75;0.63;;;;;;;17.27;62.79;96122.81;2083463;28;20075;-47
2023/01/18 02:09:01;;;;;;;1.10;1.00;;;;;;;17.26;62.67;96124.69;2089572;28;20131;-47
2023/01/18 02:10:03;;;;;;;1.10;0.80;;;;;;;17.25;62.62;96128.47;2085637;28;20052;-50
2023/01/18 02:11:05;;;;;;;1.35;0.80;;;;;;;17.24;62.73;96121.47;2089757;28;20051;-46
2023/01/18 02:12:06;;;;;;;1.23;0.95;;;;;;;17.25;62.62;96133.81;2088351;28;20051;-47
2023/01/18 02:13:09;;;;;;;;;;;;;;;17.12;63.04;96132.34;2090873;28;20055;-47
2023/01/18 02:14:14;;;;;;;2.83;0.50;;;;;;;17.15;62.94;96139.06;2088618;28;19928;-47
2023/01/18 02:15:17;;;;;;;1.23;0.68;;;;;;;17.17;63.01;96127.03;2088484;28;20044;-48
2023/01/18 02:16:28;;;;;;;0.60;0.47;;;;;;;17.17;62.97;96129.72;2092634;28;20048;-46
2023/01/18 02:17:45;;;;;;;1.13;0.60;;;;;;;17.17;62.75;96132.41;2088014;28;20097;-49
2023/01/18 02:18:56;;;;;;;0.68;0.50;;;;;;;17.15;62.82;96123.81;2091311;28;20387;-48
2023/01/18 02:20:44;;;;;;;0.80;0.70;;;;;;;17.11;62.90;96133.44;2079887;28;20147;-47
2023/01/18 02:21:54;;;;;;;0.93;0.65;;;;;;;17.10;63.06;96147.06;2087352;28;20056;-46
2023/01/18 02:23:37;;;;;;;2.30;0.63;;;;;;;17.08;63.02;96151.88;2091248;28;20533;-48
2023/01/18 02:25:27;;;;;;;1.00;0.60;;;;;;;17.05;63.15;96147.00;2070246;28;20055;-47
2023/01/18 02:26:48;;;;;;;0.65;0.47;;;;;;;17.02;63.22;96156.38;2079088;28;20167;-49
2023/01/18 02:27:55;;;;;;;0.60;0.60;;;;;;;17.06;62.93;96156.69;2090748;28;20055;-47
2023/01/18 02:29:04;;;;;;;0.90;0.60;;;;;;;17.07;63.01;96159.09;2087453;28;20485;-46
2023/01/18 02:30:23;;;;;;;1.23;0.60;;;;;;;17.08;63.02;96166.06;2087937;28;20155;-48
2023/01/18 02:31:28;;;;;;;1.67;0.75;;;;;;;17.08;63.03;96166.06;2093110;28;20046;-47
2023/01/18 02:32:46;;;;;;;0.80;0.70;;;;;;;17.06;62.90;96162.84;2089063;28;20418;-49
2023/01/18 02:33:56;;;;;;;3.35;0.63;;;;;;;17.08;62.97;96166.06;2093678;28;20052;-47
2023/01/18 02:35:06;;;;;;;1.20;0.63;;;;;;;17.08;62.94;96166.06;2078557;28;20098;-48
2023/01/18 02:36:07;;;;;;;1.33;0.50;;;;;;;17.07;63.04;96166.31;2089477;28;20063;-48
2023/01/18 02:37:16;;;;;;;0.82;0.70;;;;;;;17.08;62.91;96165.28;2087793;28;20076;-46
2023/01/18 02:38:23;;;;;;;0.80;0.80;;;;;;;17.06;62.92;96173.56;2091252;28;20060;-48
2023/01/18 02:39:37;;;;;;;0.98;0.60;;;;;;;17.03;62.83;96168.69;2091142;28;20070;-49
2023/01/18 02:40:59;;;;;;;1.23;0.57;;;;;;;17.05;62.75;96165.75;2085906;28;20054;-50
2023/01/18 02:46:32;;;;;;;0.40;0.40;;;;;;;17.01;63.03;96165.47;2093173;28;20044;-48
2023/01/18 02:47:34;;;;;;;0.75;0.75;;;;;;;16.98;63.13;96163.28;2086324;28;20052;-49
2023/01/18 02:48:38;;;;;;;0.55;0.50;;;;;;;17.02;62.82;96166.25;2091538;28;20063;-47
2023/01/18 02:49:38;;;;;;;0.57;0.57;;;;;;;17.01;62.96;96165.47;2088944;28;20058;-48
2023/01/18 02:50:40;;;;;;;;;;;;;;;16.89;63.32;96170.16;2082841;28;20056;-47
2023/01/18 02:51:42;;;;;;;0.73;0.50;;;;;;;16.91;63.39;96166.19;2090226;28;19923;-48
2023/01/18 02:52:46;;;;;;;1.25;1.10;;;;;;;16.96;63.18;96176.13;2088595;28;20113;-48
2023/01/18 02:53:47;;;;;;;2.60;0.95;;;;;;;16.97;63.12;96170.53;2090058;28;20941;-48
2023/01/18 02:54:49;;;;;;;0.60;0.50;;;;;;;16.97;63.11;96169.72;2089203;28;20113;-48
2023/01/18 02:55:55;;;;;;;0.57;0.50;;;;;;;17.00;62.83;96171.09;2085724;28;20079;-50
2023/01/18 02:57:00;;;;;;;1.50;0.95;;;;;;;16.97;62.97;96156.34;2091433;28;20063;-47
2023/01/18 02:58:04;;;;;;;0.50;0.40;;;;;;;16.99;62.85;96156.88;2088342;28;20071;-52
2023/01/18 02:59:12;;;;;;;1.17;0.45;;;;;;;16.98;62.94;96160.63;2090030;28;22132;-47
2023/01/18 03:00:17;;;;;;;0.85;0.50;;;;;;;16.98;62.73;96158.75;2088555;28;20490;-47
2023/01/18 03:01:25;;;;;;;0.50;0.50;;;;;;;16.96;62.89;96158.19;2089159;28;20064;-48
2023/01/18 03:02:27;;;;;;;3.08;1.05;;;;;;;16.95;63.05;96169.16;2089832;28;20112;-47
2023/01/18 03:03:29;;;;;;;1.08;0.68;;;;;;;16.94;62.97;96165.69;2089189;28;21053;-48
2023/01/18 03:04:35;;;;;;;0.93;0.55;;;;;;;16.97;62.89;96165.16;2088987;28;20052;-46
2023/01/18 03:05:38;;;;;;;1.10;0.50;;;;;;;16.96;62.98;96176.13;2088287;28;24957;-47
2023/01/18 03:06:44;;;;;;;3.30;0.60;;;;;;;16.96;63.00;96168.09;2092432;28;20063;-47
2023/01/18 03:07:53;;;;;;;1.45;0.60;;;;;;;16.94;62.89;96181.75;2089642;28;20048;-49
2023/01/18 03:08:58;;;;;;;2.35;0.70;;;;;;;16.95;63.31;96172.63;2081720;28;20061;-47
2023/01/18 03:10:01;;;;;;;2.50;0.68;;;;;;;16.95;62.96;96180.66;2087770;28;20545;-48
2023/01/18 03:11:07;;;;;;;0.50;0.40;;;;;;;16.94;62.97;96184.41;2091620;28;20040;-48
2023/01/18 03:12:19;;;;;;;1.38;0.57;;;;;;;16.93;62.91;96181.97;2088376;28;20052;-47
2023/01/18 03:13:28;;;;;;;1.40;0.50;;;;;;;16.89;63.13;96178.19;2088057;28;20060;-48
2023/01/18 03:14:38;;;;;;;1.27;0.40;;;;;;;16.88;63.09;96182.75;2090416;28;20056;-47
2023/01/18 03:15:48;;;;;;;1.15;0.60;;;;;;;16.90;62.97;96190.53;2089401;28;20748;-48
2023/01/18 03:16:57;;;;;;;0.88;0.88;;;;;;;16.88;63.06;96190.78;2087701;28;20049;-48
2023/01/18 03:18:05;;;;;;;2.05;0.85;;;;;;;16.86;63.26;96187.53;2090247;28;20041;-46
2023/01/18 03:20:39;;;;;;;1.45;0.50;;;;;;;16.81;63.16;96194.72;2084346;28;20044;-49
2023/01/18 03:21:44;;;;;;;0.40;0.40;;;;;;;16.85;63.11;96187.78;2089456;28;20053;-50
2023/01/18 03:24:11;;;;;;;1.38;0.70;;;;;;;16.83;63.20;96179.22;2087966;28;20053;-51
2023/01/18 03:25:17;;;;;;;1.80;0.68;;;;;;;16.84;63.03;96183.50;2084151;28;21087;-52
2023/01/18 03:26:21;;;;;;;1.00;0.77;;;;;;;16.85;62.99;96183.22;2089037;28;20058;-52
2023/01/18 03:34:20;;;;;;;0.70;0.50;;;;;;;16.73;63.24;96204.75;2091452;28;20049;-48
2023/01/18 03:35:25;;;;;;;1.55;0.68;;;;;;;16.75;63.22;96199.97;2088362;28;21808;-48
2023/01/18 03:36:30;;;;;;;0.88;0.60;;;;;;;16.77;63.20;96193.56;2088137;28;20490;-48
2023/01/18 03:37:36;;;;;;;1.27;0.73;;;;;;;16.77;63.00;96206.97;2088086;28;20510;-51
2023/01/18 03:38:41;;;;;;;1.65;0.80;;;;;;;16.74;63.27;96198.38;2088308;28;20048;-50
2023/01/18 03:39:47;;;;;;;1.90;0.55;;;;;;;16.75;63.02;96189.25;2090042;28;20059;-46
2023/01/18 03:40:48;;;;;;;4.90;0.75;;;;;;;16.77;63.09;96198.94;2092701;28;20044;-47
2023/01/18 03:41:54;;;;;;;1.17;0.73;;;;;;;16.74;63.11;96193.00;2091218;28;20048;-51
2023/01/18 03:43:00;;;;;;;2.00;0.60;;;;;;;16.78;63.11;96190.66;2084765;28;20052;-51
2023/01/18 03:44:10;;;;;;;1.13;0.70;;;;;;;16.74;63.13;96192.19;2091188;28;20107;-48
2023/01/18 03:45:19;;;;;;;1.45;1.08;;;;;;;16.71;63.23;96188.13;2093408;28;20040;-52
2023/01/18 03:46:23;;;;;;;1.98;0.82;;;;;;;16.70;63.27;96197.22;2087990;28;20049;-49
2023/01/18 03:47:25;;;;;;;0.52;0.32;;;;;;;16.72;63.14;96200.47;2090724;28;20423;-50
2023/01/18 03:48:27;;;;;;;1.15;0.77;;;;;;;16.71;63.18;96201.53;2089601;28;20048;-49
2023/01/18 03:49:29;;;;;;;0.73;0.60;;;;;;;16.72;63.11;96195.13;2091475;28;20692;-46
2023/01/18 03:50:39;;;;;;;1.35;0.60;;;;;;;16.71;63.08;96198.84;2094634;28;20646;-46
2023/01/18 03:51:52;;;;;;;1.00;0.50;;;;;;;16.69;63.24;96203.66;2088231;28;20048;-54
2023/01/18 03:52:58;;;;;;;1.40;0.47;;;;;;;16.70;63.21;96201.78;2092510;28;20058;-47
2023/01/18 03:54:06;;;;;;;2.42;0.60;;;;;;;16.65;63.25;96201.72;2090299;28;20075;-49
2023/01/18 03:55:15;;;;;;;1.55;0.60;;;;;;;16.66;63.20;96203.31;2091335;28;20127;-51
2023/01/18 03:56:22;;;;;;;0.70;0.60;;;;;;;16.65;63.27;96201.72;2089558;28;27435;-48
2023/01/18 03:57:30;;;;;;;0.70;0.55;;;;;;;16.62;63.32;96200.34;2088850;28;21449;-47
2023/01/18 03:58:35;;;;;;;2.30;0.77;;;;;;;16.65;63.24;96205.19;2084257;28;20571;-51
2023/01/18 03:59:39;;;;;;;1.27;0.82;;;;;;;16.67;63.38;96205.75;2088460;28;20049;-49
2023/01/18 04:00:40;;;;;;;1.38;0.43;;;;;;;16.69;63.07;96205.53;2088280;28;20677;-48
2023/01/18 04:01:46;;;;;;;0.60;0.60;;;;;;;16.69;63.02;96194.81;2088413;28;20525;-47
2023/01/18 04:02:50;;;;;;;1.17;0.65;;;;;;;16.68;63.00;96199.34;2088645;28;20964;-46
2023/01/18 04:03:52;;;;;;;0.52;0.50;;;;;;;16.64;63.14;96198.25;2087740;28;20055;-50
2023/01/18 04:04:56;;;;;;;2.13;0.50;;;;;;;16.65;63.26;96202.53;2093543;28;20044;-51
2023/01/18 04:05:57;;;;;;;2.00;0.60;;;;;;;16.66;63.13;96206.00;2091690;28;20058;-49
2023/01/18 04:06:59;;;;;;;0.88;0.60;;;;;;;16.65;63.20;96207.88;2093222;28;20072;-47
2023/01/18 04:08:00;;;;;;;0.52;0.50;;;;;;;16.64;63.18;96208.13;2090205;28;20479;-48
2023/01/18 04:09:03;;;;;;;;;;;;;;;16.52;63.54;96205.59;2090014;28;20044;-50
2023/01/18 04:10:05;;;;;;;2.22;0.60;;;;;;;16.54;63.50;96198.91;2086431;28;20566;-49
2023/01/18 04:11:06;;;;;;;0.77;0.50;;;;;;;16.57;63.56;96196.81;2084175;28;20049;-50
2023/01/18 04:12:07;;;;;;;2.25;0.65;;;;;;;16.59;63.35;96195.50;2090638;28;20658;-51
2023/01/18 04:13:09;;;;;;;;;;;;;;;16.45;63.73;96196.94;2088511;28;20050;-47
2023/01/18 04:14:09;;;;;;;1.80;0.70;;;;;;;16.53;63.54;96196.50;2086829;28;20290;-50
2023/01/18 04:15:11;;;;;;;;;;;;;;;16.43;63.74;96194.50;2088272;28;20048;-48
2023/01/18 04:16:12;;;;;;;2.63;0.65;;;;;;;16.47;63.77;96189.47;2089116;28;19935;-51
2023/01/18 04:17:14;;;;;;;;;;;;;;;16.40;63.79;96189.66;2091994;28;20041;-47
2023/01/18 04:18:16;;;;;;;1.63;0.60;;;;;;;16.48;63.73;96201.78;2082022;28;20388;-48
2023/01/18 04:19:18;;;;;;;0.85;0.38;;;;;;;16.50;63.48;96192.44;2087976;28;20087;-48
2023/01/18 04:20:19;;;;;;;0.52;0.52;;;;;;;16.54;63.34;96190.09;2089294;28;20051;-49
2023/01/18 04:21:20;;;;;;;;;;;;;;;16.44;63.65;96203.34;2087399;28;20059;-50
2023/01/18 04:22:21;;;;;;;0.57;0.38;;;;;;;16.47;63.67;96202.84;2086099;28;19925;-49
2023/01/18 04:23:23;;;;;;;;;;;;;;;16.39;63.81;96208.63;2087964;28;20055;-48
2023/01/18 04:24:24;;;;;;;2.80;0.65;;;;;;;16.45;63.75;96204.97;2085575;28;19929;-49
2023/01/18 04:25:26;;;;;;;;;;;;;;;16.37;63.83;96202.72;2090934;28;20045;-49
2023/01/18 04:26:27;;;;;;;1.27;0.57;;;;;;;16.44;63.77;96206.03;2089433;28;19943;-50
2023/01/18 04:27:28;;;;;;;;;;;;;;;16.35;63.82;96202.94;2079237;28;20056;-46
2023/01/18 04:28:29;;;;;;;;;;;;;;;16.29;64.06;96196.72;2088596;28;19927;-47
2023/01/18 04:29:31;;;;;;;0.40;0.40;;;;;;;16.37;63.82;96198.16;2088471;28;20002;-48
2023/01/18 04:30:31;;;;;;;0.80;0.40;;;;;;;16.43;63.60;96186.47;2088891;28;20048;-50
2023/01/18 04:31:33;;;;;;;;;;;;;;;16.33;63.90;96196.25;2084496;28;20600;-47
2023/01/18 04:32:34;;;;;;;0.77;0.50;;;;;;;16.40;63.73;96196.88;2091103;28;19939;-49
2023/01/18 04:33:37;;;;;;;;;;;;;;;16.34;63.83;96206.69;2086804;28;20475;-50
2023/01/18 04:34:37;;;;;;;1.05;0.80;;;;;;;16.37;63.88;96202.72;2091414;28;19925;-48
2023/01/18 04:35:39;;;;;;;;;;;;;;;16.31;63.83;96207.19;2094076;28;20060;-51
2023/01/18 04:36:40;;;;;;;0.82;0.60;;;;;;;16.39;63.78;96205.97;2088672;28;20408;-47
2023/01/18 04:37:42;;;;;;;;;;;;;;;16.40;63.63;96210.25;2091276;28;20041;-49
2023/01/18 04:38:42;;;;;;;0.40;0.40;;;;;;;16.49;63.33;96212.25;2089349;28;20309;-50
2023/01/18 04:39:46;;;;;;;;;;;;;;;16.53;63.33;96223.25;2089649;28;20048;-48
2023/01/18 04:40:47;;;;;;;0.63;0.40;;;;;;;16.64;63.06;96221.53;2090236;28;19928;-51
2023/01/18 04:41:48;;;;;;;;;;;;;;;16.65;62.87;96223.13;2089158;28;20099;-48
2023/01/18 04:42:53;;;;;;;0.73;0.35;;;;;;;16.76;62.83;96227.53;2087964;28;19955;-47
2023/01/18 04:43:55;;;;;;;0.50;0.30;;;;;;;16.89;62.49;96224.53;2089869;28;20060;-46
2023/01/18 04:44:56;;;;;;;0.95;0.40;;;;;;;16.96;62.44;96222.44;2080732;28;20055;-48
2023/01/18 04:45:57;;;;;;;;;;;;;;;16.95;62.50;96226.19;2087773;28;20059;-47
2023/01/18 04:46:59;;;;;;;0.88;0.70;;;;;;;17.01;62.34;96221.69;2089529;28;19993;-48
2023/01/18 04:48:00;;;;;;;0.88;0.50;;;;;;;17.09;62.31;96228.47;2089942;28;20044;-50
2023/01/18 04:49:03;;;;;;;;;;;;;;;17.09;62.51;96231.16;2091408;28;20040;-47
2023/01/18 04:50:06;;;;;;;0.47;0.40;;;;;;;17.12;62.49;96236.00;2086973;28;19923;-49
2023/01/18 04:51:12;;;;;;;0.43;0.43;;;;;;;17.20;62.32;96232.88;2087941;28;20048;-47
2023/01/18 04:52:13;;;;;;;0.80;0.50;;;;;;;17.24;62.22;96241.22;2087089;28;20056;-49
2023/01/18 04:53:14;;;;;;;;;;;;;;;17.18;62.36;96233.13;2089097;28;21083;-52
2023/01/18 04:54:17;;;;;;;0.43;0.30;;;;;;;17.29;62.25;96241.25;2088111;28;19934;-48
2023/01/18 04:55:19;;;;;;;0.40;0.40;;;;;;;17.34;62.24;96244.81;2089899;28;20040;-49
2023/01/18 04:56:21;;;;;;;1.45;0.50;;;;;;;17.39;62.21;96246.72;2092459;28;20078;-48
2023/01/18 04:57:22;;;;;;;0.68;0.60;;;;;;;17.41;62.16;96240.06;2086094;28;20126;-51
2023/01/18 04:58:23;;;;;;;;;;;;;;;17.38;62.39;96237.06;2091056;28;20186;-51
2023/01/18 04:59:24;;;;;;;0.85;0.50;;;;;;;17.44;62.13;96238.75;2091149;28;19935;-48
2023/01/18 05:00:26;;;;;;;;;;;;;;;17.41;62.12;96233.88;2089654;28;20078;-48
2023/01/18 05:01:28;;;;;;;;;;;;;;;17.40;62.32;96218.88;2083939;28;19928;-51
2023/01/18 05:02:30;;;;;;;1.58;1.10;;;;;;;17.49;62.26;96220.00;2088971;28;19985;-51
2023/01/18 05:03:36;;;;;;;0.57;0.52;;;;;;;17.56;62.32;96225.19;2091239;28;20056;-51
2023/01/18 05:04:40;;;;;;;0.57;0.57;;;;;;;17.63;61.81;96225.75;2088681;28;20209;-46
2023/01/18 05:05:41;;;;;;;0.57;0.50;;;;;;;17.67;61.79;96210.78;2090914;28;20186;-49
2023/01/18 05:06:43;;;;;;;;;;;;;;;17.61;61.89;96212.63;2094073;28;20878;-47
2023/01/18 05:07:44;;;;;;;0.95;0.55;;;;;;;17.65;61.89;96213.72;2092291;28;19959;-48
2023/01/18 05:08:45;;;;;;;;;;;;;;;17.61;61.98;96226.03;2092483;28;20049;-50
2023/01/18 05:09:46;;;;;;;0.40;0.20;;;;;;;17.68;62.08;96233.03;2090816;28;20620;-56
2023/01/18 05:10:48;;;;;;;;;;;;;;;17.65;62.13;96227.13;2091074;28;20053;-51
2023/01/18 05:11:49;;;;;;;0.88;0.38;;;;;;;17.74;61.86;96237.38;2089530;28;19924;-53
2023/01/18 05:12:50;;;;;;;;;;;;;;;17.70;61.88;96247.81;2090850;28;20059;-50
2023/01/18 05:13:51;;;;;;;;;;;;;;;17.68;62.16;96241.09;2096671;28;19936;-51
2023/01/18 05:14:52;;;;;;;0.40;0.40;;;;;;;17.71;62.21;96241.38;2090716;28;19935;-53
2023/01/18 05:15:54;;;;;;;1.45;0.32;;;;;;;17.77;61.98;96236.84;2084443;28;22275;-53
2023/01/18 05:16:55;;;;;;;0.73;0.35;;;;;;;17.82;62.00;96248.47;2089961;28;20064;-46
2023/01/18 05:17:56;;;;;;;0.98;0.60;;;;;;;17.91;61.86;96258.72;2087270;28;20071;-47
2023/01/18 05:18:58;;;;;;;;;;;;;;;17.86;61.81;96254.13;2092114;28;20131;-47
2023/01/18 05:20:00;;;;;;;0.43;0.30;;;;;;;17.92;61.81;96249.63;2087147;28;19927;-48
2023/01/18 05:21:02;;;;;;;0.80;0.60;;;;;;;17.96;61.70;96256.88;2087290;28;22503;-51
2023/01/18 05:22:03;;;;;;;1.08;0.47;;;;;;;18.00;61.74;96260.69;2086992;28;20052;-50
2023/01/18 05:23:09;;;;;;;;;;;;;;;17.94;61.86;96253.66;2086749;28;20052;-48
2023/01/18 05:24:10;;;;;;;0.35;0.30;;;;;;;17.99;61.77;96255.56;2088571;28;19931;-53
2023/01/18 05:25:11;;;;;;;;;;;;;;;17.99;61.81;96261.72;2089048;28;20087;-48
2023/01/18 05:26:16;;;;;;;0.50;0.40;;;;;;;18.03;61.62;96256.69;2084758;28;20283;-47
2023/01/18 05:27:18;;;;;;;1.30;0.47;;;;;;;18.05;61.62;96252.69;2087802;28;20117;-49
2023/01/18 05:28:19;;;;;;;0.43;0.30;;;;;;;18.13;61.58;96246.00;2084777;28;20064;-49
2023/01/18 05:29:20;;;;;;;;;;;;;;;18.08;61.74;96260.19;2081757;28;20059;-49
2023/01/18 05:30:22;;;;;;;;;;;;;;;18.08;61.61;96251.34;2085926;28;19928;-47
2023/01/18 05:31:24;;;;;;;;;;;;;;;18.05;61.95;96258.03;2090748;28;19982;-50
2023/01/18 05:32:24;;;;;;;1.17;0.60;;;;;;;18.12;61.70;96257.00;2083461;28;19929;-49
2023/01/18 05:33:26;;;;;;;;;;;;;;;18.11;61.73;96258.88;2087611;28;20052;-51
2023/01/18 05:34:27;;;;;;;1.40;0.70;;;;;;;18.17;61.70;96262.41;2091366;28;19920;-47
2023/01/18 05:35:31;;;;;;;0.60;0.38;;;;;;;18.22;61.37;96265.09;2088247;28;20098;-51
2023/01/18 05:36:32;;;;;;;0.60;0.60;;;;;;;18.28;61.20;96270.25;2090982;28;20051;-48
2023/01/18 05:37:33;;;;;;;;;;;;;;;18.24;61.54;96281.75;2087518;28;20110;-52
2023/01/18 05:38:34;;;;;;;0.60;0.50;;;;;;;18.25;61.53;96280.72;2090300;28;19928;-49
2023/01/18 05:39:36;;;;;;;;;;;;;;;18.24;61.49;96289.81;2088372;28;20056;-49
2023/01/18 05:40:37;;;;;;;0.40;0.38;;;;;;;18.28;61.45;96281.00;2088753;28;19934;-48